Time;durP1;ratioP1;P1;durP2;ratioP2;P2;SDS_P1;SDS_P2;PMS_P1;PMS_P2;Temp;Humidity;BMP_temperature;BMP_pressure;BME280_temperature;BME280_humidity;BME280_pressure;Samples;Min_cycle;Max_cycle;Signal;HPM_P1;HPM_P2
2022/03/10 00:02:20;;;;;;;24.47;11.60;;;2.60;99.90;;;;;;5057242;28;20383;-69
2022/03/10 00:04:46;;;;;;;23.30;12.03;;;2.50;99.90;;;;;;5057439;28;20052;-70
2022/03/10 00:07:12;;;;;;;27.50;10.70;;;2.60;99.90;;;;;;5039460;28;20017;-70
2022/03/10 00:09:37;;;;;;;26.40;11.03;;;2.50;99.90;;;;;;5049094;28;20103;-70
2022/03/10 00:12:04;;;;;;;28.47;12.33;;;2.50;99.90;;;;;;5062029;28;20063;-70
2022/03/10 00:14:30;;;;;;;29.88;12.88;;;2.40;99.90;;;;;;5056941;28;20062;-70
2022/03/10 00:16:56;;;;;;;29.10;11.15;;;2.40;99.90;;;;;;5039365;28;20135;-70
2022/03/10 00:19:21;;;;;;;22.95;10.70;;;2.40;99.90;;;;;;5057059;28;20060;-70
2022/03/10 00:21:48;;;;;;;24.83;11.20;;;2.30;99.90;;;;;;5057072;28;20411;-70
2022/03/10 00:24:15;;;;;;;31.02;11.48;;;2.30;99.90;;;;;;5057039;28;20067;-70
2022/03/10 00:26:42;;;;;;;22.48;10.60;;;2.40;99.90;;;;;;5056486;28;20033;-70
2022/03/10 00:29:08;;;;;;;26.60;11.25;;;2.50;99.90;;;;;;5055162;28;20029;-70
2022/03/10 00:31:34;;;;;;;27.60;12.07;;;2.60;99.90;;;;;;5038057;28;20419;-69
2022/03/10 00:34:00;;;;;;;30.30;11.48;;;2.70;99.90;;;;;;5056959;28;20262;-70
2022/03/10 00:36:26;;;;;;;23.37;10.57;;;2.80;99.90;;;;;;5056131;28;20331;-69
2022/03/10 00:38:51;;;;;;;23.73;9.13;;;2.80;99.90;;;;;;5056162;28;22253;-69
2022/03/10 00:41:18;;;;;;;29.33;11.53;;;2.70;99.90;;;;;;5038633;28;20024;-78
2022/03/10 00:43:44;;;;;;;25.63;11.50;;;2.70;99.90;;;;;;5037825;28;20025;-69
2022/03/10 00:46:09;;;;;;;26.73;10.43;;;2.70;99.90;;;;;;5051372;28;20033;-70
2022/03/10 00:48:36;;;;;;;29.90;12.23;;;2.60;99.90;;;;;;5053472;28;20036;-70
2022/03/10 00:51:03;;;;;;;23.25;10.90;;;2.60;99.90;;;;;;5056376;28;20317;-70
2022/03/10 00:53:28;;;;;;;18.13;8.65;;;2.70;99.90;;;;;;5056270;28;20025;-70
2022/03/10 00:55:54;;;;;;;24.30;10.90;;;2.80;99.90;;;;;;5048710;28;20080;-69
2022/03/10 00:58:20;;;;;;;22.77;10.87;;;2.80;99.90;;;;;;5055565;28;20017;-78
2022/03/10 01:00:46;;;;;;;21.33;9.00;;;2.70;99.90;;;;;;5054073;28;20040;-70
2022/03/10 01:03:11;;;;;;;19.93;8.83;;;2.70;99.90;;;;;;5062309;28;20051;-70
2022/03/10 01:05:37;;;;;;;25.93;12.00;;;2.60;99.90;;;;;;5056257;28;20068;-69
2022/03/10 01:08:03;;;;;;;32.07;12.93;;;2.60;99.90;;;;;;5021180;28;20117;-70
2022/03/10 01:10:29;;;;;;;32.50;12.23;;;2.70;99.90;;;;;;5018341;28;20033;-70
2022/03/10 01:12:54;;;;;;;28.20;11.13;;;2.70;99.90;;;;;;5053959;28;20029;-71
2022/03/10 01:15:23;;;;;;;29.93;11.90;;;2.60;99.90;;;;;;5055921;28;20025;-69
2022/03/10 01:17:49;;;;;;;29.27;12.00;;;2.60;99.90;;;;;;5037779;28;20044;-70
2022/03/10 01:20:17;;;;;;;33.13;13.80;;;2.50;99.90;;;;;;5055549;28;20025;-69
2022/03/10 01:22:42;;;;;;;30.95;13.55;;;2.50;99.90;;;;;;5056140;28;20112;-69
2022/03/10 01:25:09;;;;;;;29.77;12.60;;;2.40;99.90;;;;;;5055530;28;20070;-70
2022/03/10 01:27:35;;;;;;;32.00;12.20;;;2.40;99.90;;;;;;5036896;28;20033;-69
2022/03/10 01:30:02;;;;;;;28.85;12.07;;;2.40;99.90;;;;;;5053497;28;20044;-69
2022/03/10 01:32:28;;;;;;;;;;;2.40;99.90;;;;;;5050544;28;20442;-79
2022/03/10 01:34:54;;;;;;;28.23;11.33;;;2.50;99.90;;;;;;5049576;28;19908;-69
2022/03/10 01:37:20;;;;;;;27.17;12.07;;;2.40;99.90;;;;;;5055562;28;20056;-69
2022/03/10 01:39:46;;;;;;;28.60;13.00;;;2.40;99.90;;;;;;5061596;28;20112;-69
2022/03/10 01:42:12;;;;;;;28.23;12.25;;;2.30;99.90;;;;;;5055024;28;20063;-70
2022/03/10 01:44:38;;;;;;;19.40;9.07;;;2.30;99.90;;;;;;5050004;28;20029;-69
2022/03/10 01:47:06;;;;;;;29.23;12.47;;;2.20;99.90;;;;;;5054714;28;20021;-69
2022/03/10 01:49:35;;;;;;;26.80;11.40;;;2.20;99.90;;;;;;5055398;28;20278;-70
2022/03/10 01:52:01;;;;;;;32.00;13.27;;;2.20;99.90;;;;;;5037504;28;20108;-70
2022/03/10 01:54:27;;;;;;;29.42;11.85;;;2.20;99.90;;;;;;5054943;28;20029;-70
2022/03/10 01:56:53;;;;;;;21.70;10.17;;;2.30;99.90;;;;;;5054972;28;20037;-70
2022/03/10 01:59:21;;;;;;;36.88;12.23;;;2.30;99.90;;;;;;5036927;28;20636;-70
2022/03/10 02:01:47;;;;;;;28.25;12.20;;;2.40;99.90;;;;;;5054617;28;20044;-70
2022/03/10 02:04:13;;;;;;;32.57;13.20;;;2.30;99.90;;;;;;5055026;28;20017;-69
2022/03/10 02:06:39;;;;;;;23.80;11.20;;;2.30;99.90;;;;;;5058994;28;20108;-78
2022/03/10 02:11:51;;;;;;;29.80;13.20;;;2.20;99.90;;;;;;5049117;28;20040;-69
2022/03/10 02:17:19;;;;;;;31.33;12.60;;;2.20;99.90;;;;;;5053640;28;20044;-69
2022/03/10 02:19:46;;;;;;;27.35;12.57;;;2.20;99.90;;;;;;5042890;28;20128;-70
2022/03/10 02:22:13;;;;;;;29.95;12.20;;;2.10;99.90;;;;;;5055031;28;20049;-69
2022/03/10 02:24:42;;;;;;;27.65;12.25;;;2.10;99.90;;;;;;5046896;28;20320;-70
2022/03/10 02:27:21;;;;;;;29.45;13.35;;;2.20;99.90;;;;;;5054637;28;20316;-69
2022/03/10 02:29:52;;;;;;;34.63;12.77;;;2.20;99.90;;;;;;5054298;28;20052;-70
2022/03/10 02:32:19;;;;;;;34.88;12.65;;;2.20;99.90;;;;;;5054520;28;20025;-70
2022/03/10 02:34:46;;;;;;;29.30;12.68;;;2.20;99.90;;;;;;5055118;28;20048;-70
2022/03/10 02:37:12;;;;;;;;;;;2.20;99.90;;;;;;5053474;28;20119;-69
2022/03/10 02:39:39;;;;;;;29.70;11.63;;;2.20;99.90;;;;;;5054385;28;20297;-69
2022/03/10 02:42:06;;;;;;;29.63;12.25;;;2.20;99.90;;;;;;5054953;28;20426;-69
2022/03/10 02:44:31;;;;;;;31.27;12.93;;;2.10;99.90;;;;;;5054226;28;20137;-69
2022/03/10 02:46:57;;;;;;;29.47;12.23;;;2.10;99.90;;;;;;5054714;28;20451;-69
2022/03/10 02:49:23;;;;;;;24.50;15.87;;;2.10;99.90;;;;;;5054554;28;20059;-70
2022/03/10 02:51:49;;;;;;;28.97;12.10;;;2.00;99.90;;;;;;5054657;28;20305;-69
2022/03/10 02:54:15;;;;;;;27.48;10.57;;;2.00;99.90;;;;;;5054655;28;20033;-69
2022/03/10 02:56:41;;;;;;;31.20;12.70;;;2.00;99.90;;;;;;5054637;28;20037;-69
2022/03/10 02:59:06;;;;;;;35.63;13.47;;;2.00;99.90;;;;;;5054554;28;20029;-70
2022/03/10 03:01:32;;;;;;;33.73;12.83;;;2.00;99.90;;;;;;5059962;28;20033;-69
2022/03/10 03:03:58;;;;;;;25.13;9.60;;;1.90;99.90;;;;;;5054744;28;20029;-69
2022/03/10 03:06:23;;;;;;;31.20;13.50;;;1.90;99.90;;;;;;5036703;28;20021;-69
2022/03/10 03:08:49;;;;;;;29.43;13.20;;;1.80;99.90;;;;;;5059411;28;20377;-70
2022/03/10 03:11:15;;;;;;;31.20;13.50;;;1.80;99.90;;;;;;5054466;28;20456;-69
2022/03/10 03:13:41;;;;;;;33.60;12.93;;;1.70;99.90;;;;;;5055228;28;20029;-69
2022/03/10 03:16:07;;;;;;;26.60;12.47;;;1.70;99.90;;;;;;5057863;28;20328;-70
2022/03/10 03:18:33;;;;;;;35.30;13.30;;;1.70;99.90;;;;;;5040149;28;20029;-69
2022/03/10 03:20:59;;;;;;;35.63;13.80;;;1.70;99.90;;;;;;5069058;28;20028;-69
2022/03/10 03:23:24;;;;;;;24.63;10.30;;;1.80;99.90;;;;;;5058146;28;20459;-70
2022/03/10 03:25:51;;;;;;;24.90;10.33;;;1.80;99.90;;;;;;5061781;28;20155;-69
2022/03/10 03:28:17;;;;;;;;;;;1.80;99.90;;;;;;5058462;28;20416;-69
2022/03/10 03:30:43;;;;;;;30.98;12.98;;;1.80;99.90;;;;;;5057786;28;19915;-69
2022/03/10 03:33:09;;;;;;;33.73;14.13;;;1.80;99.90;;;;;;5056224;28;20116;-69
2022/03/10 03:35:34;;;;;;;21.77;9.77;;;1.90;99.90;;;;;;5057123;28;20055;-69
2022/03/10 03:38:00;;;;;;;41.50;12.20;;;1.90;99.90;;;;;;5060738;28;20053;-69
2022/03/10 03:40:27;;;;;;;34.03;13.23;;;1.80;99.90;;;;;;5040100;28;20040;-69
2022/03/10 03:42:53;;;;;;;35.35;12.57;;;1.80;99.90;;;;;;5057200;28;20032;-69
2022/03/10 03:45:19;;;;;;;30.57;13.63;;;1.70;99.90;;;;;;5057814;28;20803;-69
2022/03/10 03:47:44;;;;;;;31.70;13.70;;;1.70;99.90;;;;;;5039548;28;20025;-69
2022/03/10 03:50:12;;;;;;;27.40;12.90;;;1.70;99.90;;;;;;5040189;28;20040;-79
2022/03/10 03:52:38;;;;;;;27.50;12.10;;;1.60;99.90;;;;;;5057716;28;20025;-69
2022/03/10 03:55:04;;;;;;;26.30;10.50;;;1.50;99.90;;;;;;5057581;28;20119;-70
2022/03/10 03:57:29;;;;;;;31.73;13.80;;;1.40;99.90;;;;;;5039887;28;20270;-70
2022/03/10 03:59:55;;;;;;;33.30;12.53;;;1.40;99.90;;;;;;5039602;28;20289;-70
2022/03/10 04:02:21;;;;;;;34.67;14.87;;;1.30;99.90;;;;;;5057822;28;20293;-70
2022/03/10 04:04:46;;;;;;;33.10;13.03;;;1.20;99.90;;;;;;5057431;28;20037;-69
2022/03/10 04:07:12;;;;;;;29.83;12.87;;;1.10;99.90;;;;;;5057175;28;20025;-70
2022/03/10 04:09:38;;;;;;;30.40;12.10;;;1.00;99.90;;;;;;5057420;28;20033;-70
2022/03/10 04:12:04;;;;;;;32.47;14.47;;;1.00;99.90;;;;;;5057264;28;20037;-69
2022/03/10 04:14:29;;;;;;;33.97;12.98;;;0.90;99.90;;;;;;5057682;28;20051;-69
2022/03/10 04:16:55;;;;;;;29.23;13.83;;;0.90;99.90;;;;;;5056867;28;20412;-70
2022/03/10 04:19:21;;;;;;;32.27;13.30;;;1.00;99.90;;;;;;5057484;28;20033;-69
2022/03/10 04:21:47;;;;;;;34.30;14.40;;;1.10;99.90;;;;;;5039479;28;20057;-69
2022/03/10 04:24:13;;;;;;;26.33;9.40;;;1.10;99.90;;;;;;5056573;28;20363;-71
2022/03/10 04:26:39;;;;;;;35.30;13.60;;;1.20;99.90;;;;;;5056975;28;20316;-70
2022/03/10 04:29:04;;;;;;;32.17;13.68;;;1.20;99.90;;;;;;5056808;28;20028;-69
2022/03/10 04:31:30;;;;;;;36.67;14.40;;;1.20;99.90;;;;;;5056733;28;20025;-70
2022/03/10 04:33:56;;;;;;;21.83;9.67;;;1.20;99.90;;;;;;5056169;28;20433;-70
2022/03/10 04:36:22;;;;;;;35.37;13.53;;;1.20;99.90;;;;;;5037263;28;20048;-70
2022/03/10 04:38:48;;;;;;;20.17;8.85;;;1.10;99.90;;;;;;5054286;28;20166;-70
2022/03/10 04:41:13;;;;;;;25.57;10.13;;;1.00;99.90;;;;;;5034486;28;20115;-69
2022/03/10 04:43:39;;;;;;;35.97;13.57;;;1.00;99.90;;;;;;5053431;28;20412;-70
2022/03/10 04:46:05;;;;;;;49.73;12.57;;;1.00;99.90;;;;;;5054338;28;20052;-79
2022/03/10 04:48:31;;;;;;;27.23;12.73;;;1.00;99.90;;;;;;5052535;28;20021;-69
2022/03/10 04:50:57;;;;;;;35.20;13.37;;;1.00;99.90;;;;;;5037541;28;20327;-69
2022/03/10 04:53:22;;;;;;;30.43;13.00;;;1.00;99.90;;;;;;5054627;28;20075;-70
2022/03/10 04:55:48;;;;;;;31.63;14.43;;;0.90;99.90;;;;;;5053970;28;20025;-69
2022/03/10 04:58:14;;;;;;;39.27;14.23;;;0.80;99.90;;;;;;5052625;28;20036;-69
2022/03/10 05:00:40;;;;;;;20.33;9.02;;;0.60;99.90;;;;;;5037746;28;20025;-79
2022/03/10 05:03:06;;;;;;;24.65;10.93;;;0.60;99.90;;;;;;5055100;28;20052;-69
2022/03/10 05:05:32;;;;;;;32.43;13.27;;;0.60;99.90;;;;;;5055343;28;20094;-69
2022/03/10 05:07:58;;;;;;;32.03;13.95;;;0.40;99.90;;;;;;5054597;28;20431;-69
2022/03/10 05:10:24;;;;;;;24.60;9.53;;;0.30;99.90;;;;;;5037110;28;20029;-70
2022/03/10 05:13:02;;;;;;;22.00;9.87;;;0.20;99.90;;;;;;5035400;28;20565;-69
2022/03/10 05:15:32;;;;;;;33.53;13.05;;;0.10;99.90;;;;;;5036592;28;20155;-69
2022/03/10 05:17:59;;;;;;;38.95;13.80;;;0.10;99.90;;;;;;5036184;28;20036;-69
2022/03/10 05:20:26;;;;;;;33.60;14.02;;;0.20;99.90;;;;;;5052859;28;20438;-69
2022/03/10 05:22:56;;;;;;;45.03;15.25;;;0.30;99.90;;;;;;5052230;28;20020;-69
2022/03/10 05:25:24;;;;;;;30.58;13.40;;;0.30;99.90;;;;;;5054475;28;20312;-70
2022/03/10 05:27:52;;;;;;;41.15;14.32;;;0.30;99.90;;;;;;5049936;28;20028;-80
2022/03/10 05:30:19;;;;;;;31.05;12.77;;;0.30;99.90;;;;;;5051592;28;20032;-70
2022/03/10 05:32:45;;;;;;;39.42;14.07;;;0.40;99.90;;;;;;5020148;28;20037;-70
2022/03/10 05:35:15;;;;;;;32.08;13.00;;;0.20;99.90;;;;;;5052599;28;20503;-70
2022/03/10 05:37:43;;;;;;;33.60;14.20;;;0.20;99.90;;;;;;5018004;28;21730;-69
2022/03/10 05:40:11;;;;;;;35.33;14.00;;;0.30;99.90;;;;;;5053249;28;20135;-70
2022/03/10 05:42:38;;;;;;;36.50;14.20;;;0.30;99.90;;;;;;5054544;28;20351;-69
2022/03/10 05:45:05;;;;;;;35.42;13.07;;;0.30;99.90;;;;;;5052017;28;20571;-69
2022/03/10 05:47:31;;;;;;;;;;;0.30;99.90;;;;;;5036384;28;20489;-69
2022/03/10 05:49:56;;;;;;;36.77;13.57;;;0.40;99.90;;;;;;5054731;28;19908;-69
2022/03/10 05:52:22;;;;;;;33.73;14.20;;;0.30;99.90;;;;;;5055663;28;20029;-69
2022/03/10 05:54:48;;;;;;;36.27;11.87;;;0.30;99.90;;;;;;5037579;28;20033;-79
2022/03/10 05:57:14;;;;;;;31.83;14.00;;;0.20;99.90;;;;;;5055307;28;20021;-70
2022/03/10 05:59:39;;;;;;;38.17;13.43;;;0.20;99.90;;;;;;5055220;28;20056;-69
2022/03/10 06:02:05;;;;;;;25.87;10.57;;;0.10;99.90;;;;;;5037072;28;20112;-70
2022/03/10 06:04:31;;;;;;;36.27;14.40;;;0.10;99.90;;;;;;5055135;28;20024;-80
2022/03/10 06:06:56;;;;;;;37.93;14.67;;;0.10;99.90;;;;;;5055399;28;20025;-70
2022/03/10 06:09:22;;;;;;;37.83;15.20;;;0.20;99.90;;;;;;5055154;28;20043;-70
2022/03/10 06:11:48;;;;;;;36.37;13.13;;;0.10;99.90;;;;;;5037286;28;20060;-69
2022/03/10 06:14:13;;;;;;;30.63;13.07;;;0.20;99.90;;;;;;5054630;28;20315;-69
2022/03/10 06:16:40;;;;;;;23.60;10.80;;;0.20;99.90;;;;;;5058613;28;20032;-69
2022/03/10 06:19:06;;;;;;;36.85;13.52;;;0.20;99.90;;;;;;5055005;28;20079;-68
2022/03/10 06:21:33;;;;;;;25.37;12.17;;;0.30;99.90;;;;;;5054937;28;20439;-69
2022/03/10 06:23:59;;;;;;;34.92;13.10;;;0.30;99.90;;;;;;5053605;28;20025;-69
2022/03/10 06:26:24;;;;;;;35.80;10.27;;;0.40;99.90;;;;;;5051304;28;20032;-69
2022/03/10 06:28:50;;;;;;;37.47;13.97;;;0.40;99.90;;;;;;5054573;28;20029;-69
2022/03/10 06:31:16;;;;;;;31.87;13.60;;;0.60;99.90;;;;;;5020533;28;20029;-74
2022/03/10 06:33:41;;;;;;;30.47;13.97;;;0.80;99.90;;;;;;5054803;28;20033;-69
2022/03/10 06:36:07;;;;;;;35.87;14.60;;;1.00;99.90;;;;;;5057748;28;20021;-69
2022/03/10 06:38:33;;;;;;;43.60;13.47;;;1.20;99.90;;;;;;5061592;28;20331;-69
2022/03/10 06:40:59;;;;;;;29.93;10.70;;;1.30;99.90;;;;;;5065186;28;20033;-80
2022/03/10 06:43:24;;;;;;;34.83;13.63;;;1.40;99.90;;;;;;5035885;28;20052;-69
2022/03/10 06:45:50;;;;;;;32.90;13.83;;;1.50;99.90;;;;;;5054075;28;20258;-69
2022/03/10 06:48:16;;;;;;;37.20;13.83;;;1.50;99.90;;;;;;5056783;28;20025;-68
2022/03/10 06:50:41;;;;;;;26.33;13.73;;;1.60;99.90;;;;;;5058955;28;20045;-69
2022/03/10 06:53:07;;;;;;;27.53;12.63;;;1.70;99.90;;;;;;5058522;28;20071;-68
2022/03/10 06:55:33;;;;;;;39.13;14.73;;;1.70;99.90;;;;;;5059015;28;20028;-69
2022/03/10 06:57:58;;;;;;;31.07;15.07;;;1.80;99.90;;;;;;5061795;28;20033;-82
2022/03/10 07:00:24;;;;;;;37.10;13.97;;;2.00;99.90;;;;;;5058817;28;20029;-69
2022/03/10 07:02:54;;;;;;;30.77;10.77;;;2.20;99.90;;;;;;5059749;28;20025;-69
2022/03/10 07:05:19;;;;;;;31.10;13.75;;;2.60;99.90;;;;;;5060138;28;20083;-69
2022/03/10 07:07:45;;;;;;;27.47;10.60;;;3.00;99.90;;;;;;5058708;28;20020;-69
2022/03/10 07:10:12;;;;;;;22.17;9.87;;;3.60;99.90;;;;;;5058517;28;20447;-69
2022/03/10 07:12:40;;;;;;;29.58;13.50;;;4.30;99.90;;;;;;5058071;28;20029;-70
2022/03/10 07:15:08;;;;;;;34.20;14.23;;;5.50;99.90;;;;;;5057440;28;20409;-69
2022/03/10 07:17:34;;;;;;;30.80;12.68;;;6.40;99.90;;;;;;5055861;28;20116;-69
2022/03/10 07:20:00;;;;;;;34.80;13.07;;;7.20;99.90;;;;;;5057275;28;20103;-69
2022/03/10 07:22:25;;;;;;;32.13;14.03;;;7.70;99.90;;;;;;5058304;28;20705;-69
2022/03/10 07:24:51;;;;;;;23.17;10.17;;;8.10;99.90;;;;;;5057931;28;20040;-70
2022/03/10 07:27:17;;;;;;;19.97;9.77;;;8.30;99.90;;;;;;5039903;28;20424;-69
2022/03/10 07:29:43;;;;;;;20.93;8.57;;;8.40;99.90;;;;;;5057628;28;20442;-69
2022/03/10 07:32:09;;;;;;;32.67;10.87;;;8.80;99.90;;;;;;5062481;28;20051;-82
2022/03/10 07:34:35;;;;;;;29.50;13.00;;;8.90;99.90;;;;;;5058027;28;20032;-69
2022/03/10 07:37:01;;;;;;;30.00;11.57;;;9.20;99.50;;;;;;5057944;28;20032;-70
2022/03/10 07:39:27;;;;;;;31.97;13.67;;;9.50;98.90;;;;;;5039176;28;20439;-69
2022/03/10 07:41:53;;;;;;;26.27;12.27;;;9.70;98.40;;;;;;5056256;28;20323;-70
2022/03/10 07:44:19;;;;;;;38.55;13.73;;;10.00;98.10;;;;;;5056661;28;20032;-70
2022/03/10 07:46:45;;;;;;;19.50;8.40;;;10.40;97.00;;;;;;5055289;28;20025;-69
2022/03/10 07:49:11;;;;;;;29.37;12.50;;;10.60;96.50;;;;;;5053666;28;20033;-70
2022/03/10 07:51:36;;;;;;;26.33;12.35;;;10.90;96.00;;;;;;5060855;28;20323;-81
2022/03/10 07:54:02;;;;;;;27.70;12.05;;;11.30;95.50;;;;;;5055407;28;20037;-70
2022/03/10 07:56:28;;;;;;;26.75;11.52;;;11.70;94.90;;;;;;5052184;28;20036;-70
2022/03/10 07:58:53;;;;;;;27.67;13.13;;;12.00;93.40;;;;;;5024549;28;20025;-71
2022/03/10 08:01:19;;;;;;;31.20;12.57;;;12.30;93.30;;;;;;5055160;28;20009;-70
2022/03/10 08:03:48;;;;;;;30.98;12.73;;;12.40;92.00;;;;;;5049219;28;20060;-70
2022/03/10 08:06:14;;;;;;;29.05;12.95;;;12.20;92.20;;;;;;5056112;28;20104;-70
2022/03/10 08:08:40;;;;;;;30.80;13.48;;;12.20;92.10;;;;;;5050923;28;20025;-70
2022/03/10 08:11:06;;;;;;;29.07;12.80;;;12.10;92.30;;;;;;5056378;28;20025;-70
2022/03/10 08:13:32;;;;;;;24.92;11.93;;;12.30;92.00;;;;;;5039244;28;20037;-77
2022/03/10 08:15:59;;;;;;;27.23;12.70;;;12.50;91.80;;;;;;5044448;28;20136;-70
2022/03/10 08:18:26;;;;;;;30.63;13.07;;;12.80;91.70;;;;;;5053111;28;20025;-70
2022/03/10 08:20:51;;;;;;;31.92;13.30;;;12.90;91.20;;;;;;5025253;28;20424;-70
2022/03/10 08:23:18;;;;;;;27.37;13.27;;;13.20;90.70;;;;;;5054212;28;20024;-70
2022/03/10 08:25:45;;;;;;;28.75;13.55;;;13.40;90.20;;;;;;5045877;28;20031;-70
2022/03/10 08:28:11;;;;;;;29.83;12.57;;;13.40;90.10;;;;;;5055883;28;20032;-71
2022/03/10 08:30:37;;;;;;;32.10;13.47;;;13.40;89.90;;;;;;5054448;28;20339;-70
2022/03/10 08:33:03;;;;;;;34.92;14.55;;;13.30;89.50;;;;;;5041101;28;20441;-71
2022/03/10 08:35:29;;;;;;;39.17;13.27;;;13.20;88.60;;;;;;5054094;28;20538;-70
2022/03/10 08:37:55;;;;;;;33.00;14.67;;;13.20;89.50;;;;;;5044515;28;20029;-70
2022/03/10 08:40:22;;;;;;;26.83;12.02;;;13.10;89.50;;;;;;5045228;28;20289;-76
2022/03/10 08:42:49;;;;;;;32.42;13.25;;;13.30;87.90;;;;;;5054376;28;20092;-70
2022/03/10 08:45:15;;;;;;;29.63;14.07;;;13.40;88.10;;;;;;5053947;28;20182;-71
2022/03/10 08:47:42;;;;;;;30.05;13.60;;;13.20;88.90;;;;;;5055180;28;20029;-70
2022/03/10 08:50:09;;;;;;;31.85;13.98;;;13.50;88.60;;;;;;5052539;28;20306;-70
2022/03/10 08:52:35;;;;;;;29.35;13.63;;;13.70;87.40;;;;;;5041591;28;20025;-71
2022/03/10 08:55:01;;;;;;;28.73;12.80;;;13.80;87.90;;;;;;5053019;28;20045;-70
2022/03/10 08:57:27;;;;;;;31.92;12.48;;;14.00;87.10;;;;;;5055453;28;20051;-70
2022/03/10 08:59:53;;;;;;;31.43;12.80;;;13.50;85.70;;;;;;5045961;28;20033;-71
2022/03/10 09:02:19;;;;;;;33.97;13.80;;;13.00;88.20;;;;;;5055371;28;20021;-70
2022/03/10 09:04:44;;;;;;;31.93;13.87;;;13.20;89.00;;;;;;5054879;28;20333;-70
2022/03/10 09:07:11;;;;;;;36.88;13.43;;;13.40;89.60;;;;;;5050962;28;20037;-71
2022/03/10 09:09:36;;;;;;;31.67;14.07;;;13.60;86.60;;;;;;5054677;28;20082;-70
2022/03/10 09:12:02;;;;;;;35.53;13.77;;;13.70;87.80;;;;;;5047534;28;20032;-70
2022/03/10 09:14:28;;;;;;;31.20;13.50;;;13.70;86.90;;;;;;5038877;28;20036;-70
2022/03/10 09:16:54;;;;;;;32.80;13.57;;;13.20;86.40;;;;;;5050786;28;20113;-72
2022/03/10 09:19:20;;;;;;;32.33;13.83;;;13.00;88.30;;;;;;5052804;28;20371;-71
2022/03/10 09:21:47;;;;;;;38.15;14.55;;;13.30;89.40;;;;;;5040101;28;20520;-70
2022/03/10 09:24:13;;;;;;;28.08;12.70;;;13.50;87.90;;;;;;5053243;28;20338;-74
2022/03/10 09:26:38;;;;;;;27.77;13.03;;;14.10;88.30;;;;;;5054143;28;20059;-71
2022/03/10 09:29:05;;;;;;;28.25;13.00;;;14.50;87.60;;;;;;5053215;28;20265;-70
2022/03/10 09:31:31;;;;;;;28.67;12.80;;;14.80;85.30;;;;;;5045458;28;20040;-71
2022/03/10 09:33:57;;;;;;;30.55;13.57;;;14.30;86.70;;;;;;5052455;28;20044;-71
2022/03/10 09:36:22;;;;;;;28.37;12.93;;;14.10;87.20;;;;;;5054234;28;20323;-74
2022/03/10 09:38:48;;;;;;;30.43;12.77;;;14.70;86.40;;;;;;5054104;28;20074;-71
2022/03/10 09:41:16;;;;;;;36.55;12.75;;;15.10;86.60;;;;;;5036694;28;20025;-71
2022/03/10 09:43:42;;;;;;;30.38;13.55;;;15.80;84.70;;;;;;5045599;28;20483;-71
2022/03/10 09:46:11;;;;;;;30.07;14.03;;;16.10;82.90;;;;;;5049515;28;20029;-79
2022/03/10 09:48:38;;;;;;;27.30;13.07;;;16.00;82.40;;;;;;5048015;28;20032;-71
2022/03/10 09:51:03;;;;;;;;;;;15.70;82.70;;;;;;5031017;28;20037;-71
2022/03/10 09:53:31;;;;;;;33.13;13.00;;;15.30;84.60;;;;;;5051513;28;20054;-82
2022/03/10 09:55:58;;;;;;;26.83;12.57;;;15.50;83.90;;;;;;5052760;28;20025;-72
2022/03/10 09:58:24;;;;;;;28.80;13.27;;;16.00;81.90;;;;;;5034911;28;20037;-72
2022/03/10 10:00:49;;;;;;;33.33;13.50;;;16.00;82.50;;;;;;5047252;28;20036;-83
2022/03/10 10:03:15;;;;;;;29.03;14.60;;;16.10;82.40;;;;;;5055043;28;20299;-71
2022/03/10 10:05:41;;;;;;;31.58;14.15;;;16.10;83.40;;;;;;5037315;28;20036;-71
2022/03/10 10:08:09;;;;;;;28.83;12.20;;;16.20;83.70;;;;;;5054667;28;20312;-71
2022/03/10 10:10:41;;;;;;;26.27;11.30;;;16.20;81.60;;;;;;5037087;28;20029;-72
2022/03/10 10:13:07;;;;;;;28.02;12.63;;;15.90;83.20;;;;;;5019434;28;20455;-71
2022/03/10 10:15:39;;;;;;;28.65;11.55;;;15.80;83.00;;;;;;5054765;28;20312;-71
2022/03/10 10:18:13;;;;;;;27.35;11.27;;;15.80;83.60;;;;;;5037238;28;20327;-71
2022/03/10 10:20:50;;;;;;;27.45;12.65;;;15.50;83.70;;;;;;5036446;28;20029;-72
2022/03/10 10:23:17;;;;;;;;;;;15.50;84.20;;;;;;5054722;28;20029;-71
2022/03/10 10:25:53;;;;;;;;;;;15.40;88.20;;;;;;5037583;28;19924;-72
2022/03/10 10:28:31;;;;;;;26.27;12.43;;;15.50;87.90;;;;;;5054754;28;20000;-72
2022/03/10 10:31:00;;;;;;;26.45;11.60;;;15.80;88.70;;;;;;5054560;28;20029;-71
2022/03/10 10:33:28;;;;;;;26.65;11.55;;;15.50;87.00;;;;;;5054136;28;20029;-71
2022/03/10 10:36:24;;;;;;;28.00;11.77;;;15.40;88.50;;;;;;5055034;28;20063;-72
2022/03/10 10:38:52;;;;;;;22.85;11.43;;;15.40;86.40;;;;;;5042129;28;20424;-84
2022/03/10 10:41:31;;;;;;;32.58;11.77;;;15.50;87.70;;;;;;5054547;28;20471;-84
2022/03/10 10:44:03;;;;;;;24.77;11.00;;;15.50;85.60;;;;;;5054510;28;20032;-71
2022/03/10 10:46:43;;;;;;;22.60;10.85;;;15.50;87.80;;;;;;5028816;28;20025;-72
2022/03/10 10:49:10;;;;;;;23.90;11.45;;;15.40;86.50;;;;;;5036453;28;20033;-72
2022/03/10 10:51:37;;;;;;;;;;;15.30;86.10;;;;;;5054555;28;20025;-72
2022/03/10 10:54:05;;;;;;;24.55;11.10;;;15.20;87.10;;;;;;5054603;28;20260;-72
2022/03/10 10:56:33;;;;;;;24.17;10.90;;;15.30;90.50;;;;;;5060722;28;20041;-72
2022/03/10 10:59:01;;;;;;;24.08;11.30;;;15.30;88.90;;;;;;5028251;28;20029;-71
2022/03/10 11:01:36;;;;;;;22.45;11.70;;;15.40;88.40;;;;;;5045077;28;20116;-71
2022/03/10 11:04:05;;;;;;;24.35;11.70;;;15.40;88.60;;;;;;5053231;28;20057;-71
2022/03/10 11:06:32;;;;;;;25.23;11.60;;;15.60;89.00;;;;;;5052637;28;20132;-72
2022/03/10 11:08:58;;;;;;;22.70;11.60;;;15.90;85.00;;;;;;5036419;28;20362;-72
2022/03/10 11:11:24;;;;;;;24.90;11.13;;;15.90;84.70;;;;;;5053359;28;20029;-71
2022/03/10 11:13:50;;;;;;;21.10;10.65;;;15.80;86.50;;;;;;5052485;28;20051;-72
2022/03/10 11:16:17;;;;;;;27.88;11.60;;;15.80;85.00;;;;;;5053822;28;20056;-72
2022/03/10 11:18:53;;;;;;;28.35;13.43;;;15.80;84.30;;;;;;5053879;28;20025;-72
2022/03/10 11:21:21;;;;;;;26.55;12.48;;;15.90;84.40;;;;;;5050207;28;20025;-72
2022/03/10 11:24:15;;;;;;;27.90;11.73;;;15.80;83.50;;;;;;5054596;28;20379;-73
2022/03/10 11:26:58;;;;;;;26.85;11.00;;;15.90;84.90;;;;;;5053867;28;20044;-82
2022/03/10 11:29:26;;;;;;;23.17;11.77;;;15.90;82.60;;;;;;5053563;28;20035;-72
2022/03/10 11:31:53;;;;;;;24.27;11.15;;;15.90;82.80;;;;;;5045688;28;20108;-73
2022/03/10 11:34:47;;;;;;;24.70;11.60;;;15.90;81.40;;;;;;5053205;28;20347;-77
2022/03/10 11:37:39;;;;;;;23.77;12.18;;;15.90;83.30;;;;;;5050951;28;20032;-72
2022/03/10 11:40:06;;;;;;;24.17;11.15;;;15.70;86.20;;;;;;5047474;28;20332;-73
2022/03/10 11:42:34;;;;;;;21.83;11.60;;;16.00;82.50;;;;;;5050267;28;20048;-72
2022/03/10 11:45:17;;;;;;;24.23;11.48;;;16.00;82.70;;;;;;5055245;28;20036;-81
2022/03/10 11:47:44;;;;;;;22.17;11.52;;;16.10;81.90;;;;;;5051649;28;20029;-72
2022/03/10 11:50:22;;;;;;;23.05;11.25;;;16.30;84.20;;;;;;5054250;28;20029;-72
2022/03/10 11:52:59;;;;;;;22.83;11.27;;;16.40;81.10;;;;;;5053127;28;20055;-72
2022/03/10 11:55:51;;;;;;;25.05;11.20;;;16.40;82.40;;;;;;5054152;28;20028;-72
2022/03/10 11:58:36;;;;;;;21.10;11.27;;;16.50;80.70;;;;;;5053335;28;20119;-72
2022/03/10 12:01:02;;;;;;;35.72;10.77;;;16.50;80.30;;;;;;5055553;28;20029;-72
2022/03/10 12:03:33;;;;;;;38.03;12.40;;;16.60;81.40;;;;;;5054374;28;20483;-72
2022/03/10 12:06:04;;;;;;;26.25;11.40;;;16.60;81.30;;;;;;5048255;28;20028;-73
2022/03/10 12:08:43;;;;;;;21.85;11.43;;;16.70;78.80;;;;;;5021488;28;20044;-80
2022/03/10 12:11:19;;;;;;;26.20;11.95;;;16.50;79.20;;;;;;5035096;28;20323;-73
2022/03/10 12:13:45;;;;;;;20.90;10.43;;;16.40;78.30;;;;;;5055262;28;20423;-73
2022/03/10 12:16:23;;;;;;;20.90;9.73;;;16.30;78.90;;;;;;5045580;28;20037;-72
2022/03/10 12:18:49;;;;;;;22.63;9.43;;;16.40;76.70;;;;;;5044534;28;20055;-73
2022/03/10 12:21:26;;;;;;;26.00;10.47;;;16.30;74.00;;;;;;5046397;28;20025;-72
2022/03/10 12:23:58;;;;;;;25.08;10.18;;;16.20;76.80;;;;;;5057746;28;20435;-72
2022/03/10 12:26:37;;;;;;;20.13;9.82;;;16.20;76.90;;;;;;5037975;28;20052;-72
2022/03/10 12:29:05;;;;;;;22.83;10.82;;;16.10;76.60;;;;;;5047507;28;20490;-73
2022/03/10 12:31:34;;;;;;;24.55;10.55;;;16.20;75.50;;;;;;5056168;28;20048;-72
2022/03/10 12:34:00;;;;;;;23.58;10.10;;;16.00;74.90;;;;;;5061962;28;20025;-72
2022/03/10 12:36:29;;;;;;;;;;;16.00;76.80;;;;;;5061627;28;20557;-73
2022/03/10 12:38:56;;;;;;;24.10;8.70;;;16.10;75.70;;;;;;5057294;28;19996;-73
2022/03/10 12:41:27;;;;;;;22.40;9.15;;;16.00;74.30;;;;;;5056223;28;20024;-72
2022/03/10 12:43:54;;;;;;;20.02;9.18;;;16.00;76.20;;;;;;5020012;28;20030;-73